Time;durP1;ratioP1;P1;durP2;ratioP2;P2;SDS_P1;SDS_P2;PMS_P1;PMS_P2;Temp;Humidity;BMP_temperature;BMP_pressure;BME280_temperature;BME280_humidity;BME280_pressure;Samples;Min_cycle;Max_cycle;Signal;HPM_P1;HPM_P2
2020/12/12 00:01:27;;;;;;;8.43;4.60;;;;;;;18.69;53.28;99105.59;4827613;29;20065;-72
2020/12/12 00:03:53;;;;;;;5.63;3.08;;;;;;;18.65;53.47;99107.44;4800747;29;20042;-72
2020/12/12 00:06:22;;;;;;;4.82;3.45;;;;;;;18.64;53.54;99105.72;4795360;29;20034;-73
2020/12/12 00:08:47;;;;;;;8.50;3.58;;;;;;;18.64;53.40;99112.72;4811453;29;20467;-74
2020/12/12 00:11:12;;;;;;;6.28;4.15;;;;;;;18.64;53.19;99110.97;4827612;29;20105;-74
2020/12/12 00:13:38;;;;;;;6.65;3.80;;;;;;;18.62;53.55;99098.81;4827132;29;20061;-72
2020/12/12 00:16:06;;;;;;;4.65;2.80;;;;;;;18.64;53.47;99110.97;4810802;29;20038;-72
2020/12/12 00:18:31;;;;;;;6.82;3.30;;;;;;;18.64;53.29;99112.72;4809426;29;20041;-72
2020/12/12 00:20:56;;;;;;;4.80;2.90;;;;;;;18.59;53.40;99106.78;4811166;29;20046;-74
2020/12/12 00:23:22;;;;;;;5.43;3.47;;;;;;;18.63;53.33;99121.47;4827197;29;20042;-74
2020/12/12 00:25:47;;;;;;;4.47;2.97;;;;;;;18.56;53.53;99108.53;4810855;29;20517;-74
2020/12/12 00:28:14;;;;;;;6.03;3.65;;;;;;;18.56;53.10;99112.97;4826128;29;20034;-74
2020/12/12 00:30:39;;;;;;;5.18;3.22;;;;;;;18.60;53.42;99117.19;4780921;29;20026;-74
2020/12/12 00:33:05;;;;;;;6.28;3.67;;;;;;;18.60;53.16;99114.56;4811070;29;20045;-74
2020/12/12 00:35:30;;;;;;;6.03;3.40;;;;;;;18.59;53.32;99120.72;4809264;29;20045;-72
2020/12/12 00:37:55;;;;;;;5.47;3.42;;;;;;;18.60;53.30;99119.81;4810092;29;20031;-72
2020/12/12 00:40:21;;;;;;;5.95;3.45;;;;;;;18.54;53.25;99110.38;4813568;29;20046;-72
2020/12/12 00:42:46;;;;;;;4.22;3.00;;;;;;;18.53;53.27;99113.91;4810476;29;20058;-72
2020/12/12 00:45:11;;;;;;;4.88;3.13;;;;;;;18.55;53.19;99113.84;4810580;29;20041;-74
2020/12/12 00:47:37;;;;;;;4.07;2.88;;;;;;;18.57;53.02;99127.72;4810659;29;20046;-74
2020/12/12 00:50:03;;;;;;;4.07;2.90;;;;;;;18.57;53.37;99123.34;4810757;29;20042;-73
2020/12/12 00:52:28;;;;;;;4.75;2.65;;;;;;;18.58;53.22;99124.25;4807507;29;20486;-73
2020/12/12 00:54:53;;;;;;;4.70;2.80;;;;;;;18.56;53.02;99128.66;4810231;29;20030;-73
2020/12/12 00:57:19;;;;;;;6.13;2.85;;;;;;;18.52;53.16;99114.81;4795518;29;20030;-73
2020/12/12 00:59:44;;;;;;;3.33;2.50;;;;;;;18.56;53.08;99115.56;4816807;29;20049;-73
2020/12/12 01:02:10;;;;;;;5.05;2.60;;;;;;;18.51;53.02;99115.72;4793636;29;20117;-73
2020/12/12 01:04:35;;;;;;;4.05;2.78;;;;;;;18.55;53.16;99127.81;4826574;29;20042;-73
2020/12/12 01:07:01;;;;;;;5.10;3.50;;;;;;;18.53;53.21;99115.66;4825788;29;20140;-72
2020/12/12 01:09:26;;;;;;;3.67;2.80;;;;;;;18.51;53.32;99112.25;4824671;29;20482;-72
2020/12/12 01:11:54;;;;;;;6.03;3.15;;;;;;;18.54;53.01;99125.22;4823810;29;20042;-72
2020/12/12 01:14:19;;;;;;;5.78;3.67;;;;;;;18.46;53.10;99114.13;4824141;29;20061;-72
2020/12/12 01:16:45;;;;;;;3.53;2.40;;;;;;;18.54;53.28;99135.69;4794665;29;20114;-72
2020/12/12 01:19:10;;;;;;;4.10;3.13;;;;;;;18.52;53.21;99134.91;4825963;29;20066;-71
2020/12/12 01:21:35;;;;;;;6.10;3.22;;;;;;;18.51;52.82;99139.28;4813452;29;20114;-73
2020/12/12 01:24:01;;;;;;;7.05;3.28;;;;;;;18.49;53.46;99148.06;4825173;29;20121;-73
2020/12/12 01:26:26;;;;;;;5.53;3.22;;;;;;;18.47;53.23;99139.41;4825953;29;20054;-73
2020/12/12 01:28:51;;;;;;;5.07;2.42;;;;;;;18.47;52.95;99147.25;4825046;29;20034;-73
2020/12/12 01:31:17;;;;;;;4.18;2.92;;;;;;;18.46;53.19;99149.00;4809939;29;20079;-73
2020/12/12 01:33:43;;;;;;;5.88;2.92;;;;;;;18.49;53.13;99159.41;4794824;29;20037;-73
2020/12/12 01:36:09;;;;;;;3.97;2.80;;;;;;;18.48;53.22;99157.69;4825511;29;20121;-73
2020/12/12 01:38:35;;;;;;;4.57;2.45;;;;;;;18.49;52.96;99158.53;4811058;29;20114;-73
2020/12/12 01:41:00;;;;;;;4.00;2.65;;;;;;;18.47;52.95;99157.72;4825067;29;20030;-73
2020/12/12 01:43:26;;;;;;;3.80;2.67;;;;;;;18.45;53.10;99157.78;4825899;29;20057;-73
2020/12/12 01:45:51;;;;;;;4.53;2.88;;;;;;;18.42;53.03;99160.50;4825739;29;20087;-73
2020/12/12 01:48:17;;;;;;;2.65;2.10;;;;;;;18.45;52.99;99165.63;4824277;29;20420;-73
2020/12/12 01:50:42;;;;;;;3.95;2.80;;;;;;;18.44;53.23;99163.91;4825014;29;20038;-73
2020/12/12 01:53:08;;;;;;;5.00;2.60;;;;;;;18.40;53.00;99156.22;4794879;29;20027;-74
2020/12/12 01:55:35;;;;;;;3.65;2.75;;;;;;;18.44;53.07;99168.28;4809496;29;20038;-73
2020/12/12 01:58:00;;;;;;;4.13;2.65;;;;;;;18.44;53.11;99174.38;4824721;29;20505;-73
2020/12/12 02:00:26;;;;;;;3.65;2.95;;;;;;;18.42;53.18;99175.34;4794662;29;20049;-73
2020/12/12 02:02:54;;;;;;;3.75;2.40;;;;;;;18.44;53.00;99179.63;4824535;29;20094;-73
2020/12/12 02:08:23;;;;;;;3.45;2.42;;;;;;;18.41;53.18;99178.88;4784503;29;20107;-72
2020/12/12 02:10:49;;;;;;;3.97;2.58;;;;;;;18.41;53.09;99184.97;4810687;29;20490;-72
2020/12/12 02:13:17;;;;;;;6.22;3.42;;;;;;;18.41;52.90;99181.50;4825682;29;20077;-73
2020/12/12 02:15:43;;;;;;;4.90;2.50;;;;;;;18.41;53.22;99181.50;4804456;29;20031;-73
2020/12/12 02:18:20;;;;;;;3.78;2.58;;;;;;;18.40;53.21;99187.63;4795478;29;20037;-73
2020/12/12 02:20:55;;;;;;;3.28;2.33;;;;;;;18.40;52.99;99190.25;4809054;29;20086;-73
2020/12/12 02:23:22;;;;;;;3.38;2.35;;;;;;;18.40;53.11;99188.47;4809766;29;20045;-73
2020/12/12 02:25:48;;;;;;;3.83;2.95;;;;;;;18.35;52.98;99184.28;4825247;29;20132;-74
2020/12/12 02:28:17;;;;;;;4.57;2.75;;;;;;;18.39;53.13;99185.91;4815605;29;20040;-72
2020/12/12 02:30:42;;;;;;;3.50;2.50;;;;;;;18.34;53.29;99179.94;4824756;29;20087;-72
2020/12/12 02:33:08;;;;;;;3.88;2.38;;;;;;;18.35;53.11;99186.91;4824802;29;20030;-72
2020/12/12 02:35:33;;;;;;;4.25;2.63;;;;;;;18.37;53.16;99203.41;4808859;29;20041;-72
2020/12/12 02:37:59;;;;;;;4.53;3.47;;;;;;;18.35;52.94;99195.59;4812763;29;20038;-72
2020/12/12 02:40:24;;;;;;;4.72;2.83;;;;;;;18.38;52.91;99199.91;4792363;29;20042;-72
2020/12/12 02:42:49;;;;;;;2.92;2.17;;;;;;;18.36;53.27;99192.09;4824724;29;20054;-71
2020/12/12 02:45:17;;;;;;;4.30;2.80;;;;;;;18.34;53.07;99193.03;4806486;29;20065;-72
2020/12/12 02:47:44;;;;;;;3.85;2.95;;;;;;;18.35;52.97;99198.22;4824682;29;20022;-72
2020/12/12 02:50:12;;;;;;;5.28;3.15;;;;;;;18.33;53.32;99193.94;4815205;29;20031;-72
2020/12/12 02:52:38;;;;;;;3.70;2.65;;;;;;;18.36;53.12;99205.19;4811487;29;20038;-72
2020/12/12 02:55:06;;;;;;;3.78;2.80;;;;;;;18.32;52.92;99194.84;4808266;29;20034;-72
2020/12/12 02:57:33;;;;;;;3.25;2.40;;;;;;;18.34;53.09;99198.25;4808268;29;20045;-72
2020/12/12 02:59:58;;;;;;;3.63;2.08;;;;;;;18.32;53.08;99194.84;4815797;29;20479;-72
2020/12/12 03:02:24;;;;;;;4.30;2.60;;;;;;;18.34;53.10;99200.88;4791692;29;20049;-72
2020/12/12 03:04:49;;;;;;;2.85;2.28;;;;;;;18.31;53.18;99198.34;4824938;29;20038;-72
2020/12/12 03:07:15;;;;;;;2.33;1.83;;;;;;;18.29;53.18;99198.44;4809992;29;20469;-72
2020/12/12 03:09:40;;;;;;;3.25;2.38;;;;;;;18.32;53.12;99205.31;4775382;29;20066;-72
2020/12/12 03:12:05;;;;;;;3.10;2.25;;;;;;;18.31;53.07;99206.19;4823145;29;20053;-72
2020/12/12 03:14:31;;;;;;;4.63;2.60;;;;;;;18.32;52.97;99207.91;4823793;29;20054;-73
2020/12/12 03:16:56;;;;;;;3.47;2.22;;;;;;;18.27;53.10;99200.22;4787099;29;20394;-73
2020/12/12 03:19:22;;;;;;;4.00;2.42;;;;;;;18.24;53.27;99197.69;4792329;29;20413;-73
2020/12/12 03:21:48;;;;;;;2.92;2.30;;;;;;;18.32;53.28;99210.53;4805838;29;20716;-73
2020/12/12 03:24:13;;;;;;;2.95;2.53;;;;;;;18.30;53.44;99218.47;4806504;29;20042;-73
2020/12/12 03:26:38;;;;;;;3.90;2.55;;;;;;;18.30;53.26;99225.44;4824054;29;20486;-73
2020/12/12 03:29:04;;;;;;;3.80;2.58;;;;;;;18.24;53.43;99216.00;4824407;29;20047;-73
2020/12/12 03:31:29;;;;;;;3.13;2.40;;;;;;;18.28;53.22;99225.50;4808075;29;20030;-73
2020/12/12 03:33:55;;;;;;;3.88;2.55;;;;;;;18.26;53.20;99222.06;4793569;29;20125;-73
2020/12/12 03:36:20;;;;;;;2.72;2.10;;;;;;;18.25;53.20;99216.88;4825021;29;20064;-73
2020/12/12 03:38:45;;;;;;;2.85;2.30;;;;;;;18.26;53.15;99222.06;4823694;29;20030;-74
2020/12/12 03:41:11;;;;;;;3.40;2.13;;;;;;;18.21;53.33;99216.94;4808704;29;20042;-73
2020/12/12 03:43:36;;;;;;;3.33;2.20;;;;;;;18.25;53.46;99225.56;4808089;29;20055;-73
2020/12/12 03:46:02;;;;;;;3.10;2.17;;;;;;;18.24;53.38;99231.72;4824367;29;20045;-73
2020/12/12 03:48:28;;;;;;;3.10;2.35;;;;;;;18.26;53.19;99223.81;4824257;29;20026;-73
2020/12/12 03:50:53;;;;;;;3.15;2.65;;;;;;;18.23;53.12;99221.28;4809070;29;20049;-73
2020/12/12 03:53:19;;;;;;;2.88;2.20;;;;;;;18.26;53.40;99229.91;4824663;29;20030;-73
2020/12/12 03:55:44;;;;;;;2.53;1.90;;;;;;;18.23;53.32;99226.53;4811960;29;20035;-74
2020/12/12 03:58:09;;;;;;;3.65;2.15;;;;;;;18.22;53.02;99225.66;4798852;29;20045;-74
2020/12/12 04:00:35;;;;;;;3.45;2.35;;;;;;;18.21;53.52;99230.03;4824504;29;20376;-73
2020/12/12 04:03:00;;;;;;;3.38;2.70;;;;;;;18.24;53.44;99223.84;4793475;29;20037;-73
2020/12/12 04:05:25;;;;;;;3.63;1.83;;;;;;;18.23;53.14;99222.16;4824934;29;20039;-73
2020/12/12 04:07:51;;;;;;;3.50;1.90;;;;;;;18.18;53.31;99214.41;4812389;29;20034;-72
2020/12/12 04:10:16;;;;;;;3.53;2.53;;;;;;;18.24;53.25;99230.84;4812768;29;20390;-72
2020/12/12 04:12:41;;;;;;;2.85;2.33;;;;;;;18.17;53.36;99228.44;4819427;29;20027;-72
2020/12/12 04:15:07;;;;;;;2.60;2.35;;;;;;;18.15;53.50;99229.38;4804138;29;20120;-73
2020/12/12 04:17:32;;;;;;;2.80;2.13;;;;;;;18.18;53.20;99230.13;4802196;29;20030;-72
2020/12/12 04:19:58;;;;;;;2.15;1.95;;;;;;;18.17;53.35;99231.03;4806928;29;20038;-72
2020/12/12 04:22:23;;;;;;;2.67;2.10;;;;;;;18.18;53.41;99235.34;4822697;29;20046;-72
2020/12/12 04:24:48;;;;;;;4.15;2.58;;;;;;;18.17;53.18;99238.91;4817063;29;20057;-72
2020/12/12 04:27:14;;;;;;;3.38;2.60;;;;;;;18.16;53.19;99242.41;4796974;29;20046;-72
2020/12/12 04:29:39;;;;;;;3.30;2.25;;;;;;;18.19;53.37;99241.44;4807139;29;20453;-73
2020/12/12 04:32:05;;;;;;;2.72;2.22;;;;;;;18.20;53.28;99251.00;4807565;29;20041;-73
2020/12/12 04:34:31;;;;;;;2.55;2.22;;;;;;;18.17;53.31;99249.38;4808597;29;20087;-73
2020/12/12 04:36:56;;;;;;;3.35;2.78;;;;;;;18.16;53.29;99250.25;4807767;29;20030;-73
2020/12/12 04:39:21;;;;;;;2.45;1.92;;;;;;;18.19;53.13;99259.75;4826154;29;20038;-73
2020/12/12 04:41:47;;;;;;;4.22;2.47;;;;;;;18.17;52.96;99257.22;4826390;29;20070;-73
2020/12/12 04:44:13;;;;;;;3.45;2.53;;;;;;;18.16;53.19;99258.09;4795614;29;20042;-73
2020/12/12 04:46:39;;;;;;;4.10;1.80;;;;;;;18.15;53.07;99261.63;4793480;29;20619;-73
2020/12/12 04:49:04;;;;;;;2.80;2.03;;;;;;;18.15;53.33;99268.63;4821625;29;20030;-73
2020/12/12 04:51:31;;;;;;;3.25;2.17;;;;;;;18.15;53.22;99272.09;4827671;29;20502;-74
2020/12/12 04:53:57;;;;;;;2.65;2.22;;;;;;;18.16;53.13;99278.19;4826496;29;20030;-73
2020/12/12 04:56:25;;;;;;;2.15;1.95;;;;;;;18.15;53.08;99279.94;4827107;29;20041;-73
2020/12/12 04:58:51;;;;;;;2.92;2.03;;;;;;;18.13;52.90;99273.03;4828312;29;20038;-73
2020/12/12 05:01:18;;;;;;;2.92;2.63;;;;;;;18.15;53.18;99271.22;4812767;29;20445;-73
2020/12/12 05:03:44;;;;;;;3.13;2.53;;;;;;;18.15;53.27;99271.22;4810625;29;20035;-73
2020/12/12 05:06:10;;;;;;;2.67;2.03;;;;;;;18.11;53.03;99267.84;4827822;29;20153;-73
2020/12/12 05:08:36;;;;;;;3.70;2.17;;;;;;;18.13;53.51;99273.88;4826378;29;20078;-73
2020/12/12 05:11:02;;;;;;;3.63;2.72;;;;;;;18.10;53.11;99273.09;4822641;29;20030;-73
2020/12/12 05:13:30;;;;;;;2.53;2.15;;;;;;;18.11;53.20;99280.91;4828151;29;20033;-73
2020/12/12 05:15:57;;;;;;;3.25;2.25;;;;;;;18.08;53.45;99278.38;4805812;29;20121;-73
2020/12/12 05:18:23;;;;;;;3.17;2.30;;;;;;;18.11;53.22;99288.75;4826665;29;20046;-73
2020/12/12 05:20:49;;;;;;;3.25;2.40;;;;;;;18.09;53.27;99282.72;4827139;29;20041;-73
2020/12/12 05:23:17;;;;;;;2.55;1.92;;;;;;;18.09;53.27;99281.84;4826394;29;20034;-73
2020/12/12 05:25:44;;;;;;;2.70;2.05;;;;;;;18.11;53.24;99286.16;4826504;29;20435;-74
2020/12/12 05:28:12;;;;;;;3.25;2.50;;;;;;;18.12;53.34;99289.63;4808115;29;20402;-74
2020/12/12 05:30:38;;;;;;;3.35;2.42;;;;;;;18.10;53.31;99281.81;4810105;29;20066;-73
2020/12/12 05:33:06;;;;;;;3.58;2.35;;;;;;;18.09;53.22;99284.47;4812196;29;20030;-73
2020/12/12 05:35:32;;;;;;;2.55;1.90;;;;;;;18.05;53.11;99281.06;4826342;29;20121;-73
2020/12/12 05:37:59;;;;;;;2.70;2.15;;;;;;;18.07;53.02;99286.25;4827332;29;20061;-73
2020/12/12 05:40:25;;;;;;;2.55;2.10;;;;;;;18.09;53.17;99297.53;4810209;29;20037;-74
2020/12/12 05:42:50;;;;;;;3.05;2.38;;;;;;;18.08;53.36;99293.22;4827725;29;20043;-73
2020/12/12 05:45:16;;;;;;;3.78;2.20;;;;;;;18.09;53.33;99302.78;4828428;29;20030;-73
2020/12/12 05:47:42;;;;;;;1.92;1.67;;;;;;;18.04;52.95;99296.84;4827788;29;20034;-73
2020/12/12 05:50:07;;;;;;;1.85;1.48;;;;;;;18.06;52.92;99297.63;4828664;29;20027;-73
2020/12/12 05:52:34;;;;;;;2.50;1.95;;;;;;;18.06;53.08;99306.31;4818962;29;20026;-73
2020/12/12 05:55:01;;;;;;;2.33;1.80;;;;;;;18.00;53.06;99303.91;4809678;29;20067;-72
2020/12/12 05:57:27;;;;;;;2.58;2.22;;;;;;;18.05;53.13;99315.06;4823233;29;20062;-72
2020/12/12 05:59:54;;;;;;;2.60;1.92;;;;;;;18.06;52.96;99314.19;4810070;29;20504;-73
2020/12/12 06:02:24;;;;;;;2.55;2.22;;;;;;;18.05;53.13;99322.91;4826452;29;20026;-73
2020/12/12 06:04:52;;;;;;;3.47;2.70;;;;;;;18.04;53.49;99321.25;4810522;29;20118;-72
2020/12/12 06:07:29;;;;;;;3.28;2.17;;;;;;;18.05;53.31;99329.91;4808632;29;20045;-72
2020/12/12 06:09:58;;;;;;;2.47;2.17;;;;;;;18.02;53.03;99323.03;4827649;29;20035;-72
2020/12/12 06:12:23;;;;;;;2.88;1.90;;;;;;;18.03;53.10;99326.50;4810224;29;20015;-73
2020/12/12 06:14:54;;;;;;;2.55;1.95;;;;;;;17.94;53.17;99317.13;4827452;29;20378;-72
2020/12/12 06:17:29;;;;;;;2.75;2.00;;;;;;;18.01;53.12;99333.53;4826356;29;20034;-72
2020/12/12 06:19:58;;;;;;;2.65;1.73;;;;;;;18.02;53.24;99330.03;4828980;29;20090;-73
2020/12/12 06:22:24;;;;;;;1.95;1.50;;;;;;;18.01;53.14;99326.53;4796675;29;20038;-73
2020/12/12 06:24:58;;;;;;;2.50;1.80;;;;;;;17.99;53.12;99330.94;4812406;29;20083;-73
2020/12/12 06:27:29;;;;;;;3.28;1.77;;;;;;;18.02;53.39;99333.50;4816355;29;20022;-71
2020/12/12 06:29:55;;;;;;;3.25;2.10;;;;;;;18.00;53.07;99334.44;4825362;29;20030;-72
2020/12/12 06:32:21;;;;;;;2.03;1.55;;;;;;;18.01;53.17;99344.84;4809694;29;20034;-72
2020/12/12 06:34:48;;;;;;;2.53;1.90;;;;;;;17.99;53.25;99344.03;4810757;29;20034;-72
2020/12/12 06:37:38;;;;;;;2.58;1.90;;;;;;;18.01;53.26;99346.59;4795027;29;20103;-72
2020/12/12 06:40:06;;;;;;;2.70;1.98;;;;;;;17.97;53.22;99351.06;4806392;29;20046;-72
2020/12/12 06:42:36;;;;;;;2.75;1.88;;;;;;;18.00;53.07;99356.22;4810502;29;20413;-72
2020/12/12 06:45:17;;;;;;;2.13;1.75;;;;;;;18.00;53.17;99363.19;4826212;29;20405;-72
2020/12/12 06:47:48;;;;;;;2.65;2.25;;;;;;;17.97;52.87;99361.50;4806833;29;20098;-72
2020/12/12 06:50:15;;;;;;;2.50;1.63;;;;;;;17.96;52.70;99364.16;4825636;29;20614;-72
2020/12/12 06:52:42;;;;;;;2.28;1.92;;;;;;;17.99;52.77;99372.81;4822645;29;20052;-71
2020/12/12 06:55:09;;;;;;;29.90;3.83;;;;;;;17.99;52.90;99380.66;4825169;29;20395;-73
2020/12/12 07:00:07;;;;;;;3.05;2.08;;;;;;;18.07;52.86;99381.28;4808658;29;20035;-72
2020/12/12 07:02:32;;;;;;;3.53;2.05;;;;;;;18.25;52.30;99385.19;4825300;29;20034;-72
2020/12/12 07:05:17;;;;;;;3.33;1.90;;;;;;;18.34;52.00;99384.06;4820768;29;20092;-72
2020/12/12 07:07:43;;;;;;;4.75;1.65;;;;;;;18.33;52.04;99395.44;4823919;29;20041;-72
2020/12/12 07:10:09;;;;;;;3.10;2.00;;;;;;;18.37;51.90;99397.06;4808171;29;20039;-72
2020/12/12 07:12:35;;;;;;;3.78;1.60;;;;;;;18.43;51.55;99397.78;4816535;29;20094;-72
2020/12/12 07:15:02;;;;;;;2.67;1.70;;;;;;;18.41;52.08;99396.09;4781235;29;20397;-72
2020/12/12 07:17:29;;;;;;;3.05;2.15;;;;;;;18.42;52.06;99400.44;4793368;29;20049;-73
2020/12/12 07:19:54;;;;;;;3.65;2.33;;;;;;;18.42;52.11;99390.84;4824833;29;20125;-73
2020/12/12 07:22:21;;;;;;;3.08;2.35;;;;;;;18.54;51.84;99405.34;4826300;29;20101;-73
2020/12/12 07:24:46;;;;;;;2.72;1.77;;;;;;;18.54;51.82;99410.56;4823287;29;20026;-73
2020/12/12 07:27:12;;;;;;;3.55;1.90;;;;;;;18.51;52.04;99410.66;4793844;29;20555;-71
2020/12/12 07:29:37;;;;;;;1.95;1.38;;;;;;;18.55;52.05;99407.91;4809081;29;20113;-72
2020/12/12 07:32:02;;;;;;;6.50;2.03;;;;;;;18.54;52.11;99416.66;4829336;29;20026;-73
2020/12/12 07:34:28;;;;;;;4.20;1.90;;;;;;;18.51;52.31;99421.97;4828375;29;20042;-73
2020/12/12 07:37:02;;;;;;;3.55;1.90;;;;;;;18.53;52.35;99424.56;4829336;29;20030;-73
2020/12/12 07:39:30;;;;;;;2.55;1.70;;;;;;;18.59;52.31;99434.03;4828073;29;20042;-73
2020/12/12 07:41:57;;;;;;;2.45;1.58;;;;;;;18.55;52.42;99438.47;4796107;29;20065;-73
2020/12/12 07:44:23;;;;;;;2.17;1.85;;;;;;;18.56;52.46;99442.81;4809783;29;20121;-73
2020/12/12 07:47:05;;;;;;;3.00;1.63;;;;;;;18.63;52.42;99448.75;4810910;29;20076;-73
2020/12/12 07:49:31;;;;;;;2.50;1.80;;;;;;;18.60;52.37;99451.44;4814638;29;20037;-73
2020/12/12 07:52:05;;;;;;;2.72;1.65;;;;;;;18.57;52.57;99442.75;4811139;29;20026;-73
2020/12/12 07:54:31;;;;;;;;;;;;;;;18.66;52.43;99452.16;4803458;29;20038;-73
2020/12/12 07:56:56;;;;;;;2.35;1.63;;;;;;;18.65;52.53;99454.81;4811764;29;19952;-74
2020/12/12 07:59:22;;;;;;;2.00;1.50;;;;;;;18.57;52.87;99453.22;4828451;29;20031;-73
2020/12/12 08:01:49;;;;;;;3.53;2.03;;;;;;;18.64;52.60;99464.44;4797932;29;20039;-74
2020/12/12 08:04:22;;;;;;;2.55;1.67;;;;;;;18.69;52.30;99478.25;4810580;29;20053;-73
2020/12/12 08:06:48;;;;;;;2.42;1.83;;;;;;;18.65;52.56;99478.38;4826910;29;20027;-73
2020/12/12 08:09:18;;;;;;;2.55;1.63;;;;;;;18.66;52.48;99473.09;4827335;29;20502;-73
2020/12/12 08:11:43;;;;;;;2.35;1.52;;;;;;;18.72;52.57;99475.53;4812670;29;20045;-75
2020/12/12 08:14:09;;;;;;;3.20;2.00;;;;;;;18.70;52.39;99485.19;4815073;29;20030;-72
2020/12/12 08:16:44;;;;;;;2.50;1.60;;;;;;;18.68;52.75;99478.31;4812425;29;20486;-72
2020/12/12 08:19:10;;;;;;;2.25;1.67;;;;;;;18.77;52.46;99486.75;4810970;29;20477;-73
2020/12/12 08:21:36;;;;;;;4.90;1.95;;;;;;;18.76;52.29;99489.41;4828252;29;20045;-73
2020/12/12 08:24:05;;;;;;;4.25;2.78;;;;;;;18.66;52.52;99486.19;4813003;29;20046;-73
2020/12/12 08:26:32;;;;;;;2.00;1.40;;;;;;;18.73;52.50;99494.72;4820244;29;20116;-73
2020/12/12 08:29:01;;;;;;;2.95;1.65;;;;;;;18.73;52.50;99490.34;4825368;29;20117;-75
2020/12/12 08:31:26;;;;;;;3.22;1.70;;;;;;;18.77;52.52;99499.00;4823712;29;20037;-73
2020/12/12 08:33:56;;;;;;;3.53;1.83;;;;;;;18.90;52.80;99509.09;4803785;29;20050;-72
2020/12/12 08:36:28;;;;;;;2.35;1.70;;;;;;;18.97;52.72;99512.38;4795642;29;20030;-73
2020/12/12 08:38:57;;;;;;;3.83;1.90;;;;;;;18.92;52.65;99507.28;4827562;29;20030;-75
2020/12/12 08:41:49;;;;;;;5.90;2.25;;;;;;;18.81;53.02;99509.34;4810016;29;20038;-74
2020/12/12 08:44:23;;;;;;;2.38;1.65;;;;;;;18.83;53.15;99518.00;4825338;29;20062;-74
2020/12/12 08:46:53;;;;;;;10.50;3.10;;;;;;;18.87;53.01;99524.88;4815167;29;20067;-74
2020/12/12 08:49:19;;;;;;;3.63;2.25;;;;;;;18.86;52.73;99517.91;4813229;29;20040;-73
2020/12/12 08:51:51;;;;;;;3.35;1.90;;;;;;;18.83;52.51;99518.00;4810528;29;20038;-73
2020/12/12 08:54:16;;;;;;;5.53;2.20;;;;;;;18.92;52.64;99523.00;4808506;29;20022;-74
2020/12/12 08:56:41;;;;;;;2.60;1.92;;;;;;;18.88;52.50;99523.13;4806241;29;20034;-74
2020/12/12 08:59:18;;;;;;;5.10;2.40;;;;;;;18.86;52.55;99535.41;4796953;29;20106;-73
2020/12/12 09:01:43;;;;;;;4.50;2.08;;;;;;;18.89;52.50;99530.94;4828748;29;20026;-74
2020/12/12 09:04:08;;;;;;;4.28;2.05;;;;;;;18.90;52.38;99539.66;4810895;29;20121;-74
2020/12/12 09:06:45;;;;;;;5.40;2.50;;;;;;;18.85;52.53;99542.41;4825893;29;20078;-74
2020/12/12 09:09:22;;;;;;;3.15;2.42;;;;;;;18.87;52.33;99535.34;4813162;29;20034;-74
2020/12/12 09:12:00;;;;;;;5.15;2.47;;;;;;;18.90;52.25;99548.38;4834541;29;20109;-74
2020/12/12 09:14:28;;;;;;;3.55;1.85;;;;;;;18.85;52.53;99547.63;4811595;29;20030;-74
2020/12/12 09:16:55;;;;;;;10.82;2.10;;;;;;;18.91;52.50;99554.47;4816883;29;20035;-72
2020/12/12 09:19:21;;;;;;;3.67;2.30;;;;;;;18.90;52.59;99556.25;4822694;29;20035;-73
2020/12/12 09:21:47;;;;;;;3.95;2.47;;;;;;;18.88;52.46;99549.31;4826140;29;20090;-72
2020/12/12 09:24:13;;;;;;;6.78;2.20;;;;;;;18.93;52.38;99565.78;4814697;29;20042;-72
2020/12/12 09:26:38;;;;;;;6.85;2.38;;;;;;;18.96;52.83;99575.28;4825969;29;20110;-73
2020/12/12 09:29:04;;;;;;;5.70;2.53;;;;;;;18.92;52.87;99562.31;4826525;29;20042;-74
2020/12/12 09:31:30;;;;;;;4.20;2.20;;;;;;;18.99;52.68;99576.09;4825990;29;20035;-75
2020/12/12 09:33:56;;;;;;;7.05;2.90;;;;;;;19.04;52.69;99582.06;4809649;29;21924;-75
2020/12/12 09:36:21;;;;;;;4.25;2.10;;;;;;;19.02;52.97;99578.63;4811929;29;20042;-75
2020/12/12 09:38:47;;;;;;;8.00;3.08;;;;;;;18.91;52.78;99586.78;4813138;29;20166;-76
2020/12/12 09:41:12;;;;;;;15.82;5.38;;;;;;;18.81;51.73;99595.78;4828336;29;20052;-75
2020/12/12 09:43:37;;;;;;;5.25;3.38;;;;;;;18.71;52.97;99594.28;4843384;29;20125;-74
2020/12/12 09:46:05;;;;;;;7.82;2.78;;;;;;;18.67;53.40;99589.19;4828264;29;20034;-74
2020/12/12 09:48:31;;;;;;;5.97;3.00;;;;;;;18.65;53.44;99593.59;4827973;29;20110;-75
2020/12/12 09:50:56;;;;;;;4.75;3.05;;;;;;;18.62;53.54;99584.03;4809863;29;20117;-74
2020/12/12 09:53:22;;;;;;;4.85;3.28;;;;;;;18.62;53.58;99599.75;4812404;29;20087;-75
2020/12/12 09:55:47;;;;;;;6.78;3.17;;;;;;;18.57;53.65;99594.59;4826245;29;20053;-75
2020/12/12 09:58:13;;;;;;;6.78;3.88;;;;;;;18.57;53.83;99596.34;4817978;29;20026;-74
2020/12/12 10:00:40;;;;;;;5.90;3.00;;;;;;;18.60;53.23;99609.41;4809412;29;20031;-75
2020/12/12 10:03:06;;;;;;;3.95;2.72;;;;;;;18.55;53.67;99600.78;4811823;29;20543;-75
2020/12/12 10:05:33;;;;;;;5.03;2.42;;;;;;;18.57;53.48;99610.28;4809745;29;20030;-75
2020/12/12 10:07:59;;;;;;;5.78;2.63;;;;;;;18.54;53.72;99617.38;4809771;29;20022;-74
2020/12/12 10:10:26;;;;;;;4.25;2.92;;;;;;;18.54;53.51;99614.78;4810085;29;20041;-74
2020/12/12 10:12:52;;;;;;;4.30;2.50;;;;;;;18.49;53.64;99607.03;4825925;29;20034;-74
2020/12/12 10:15:19;;;;;;;7.25;3.13;;;;;;;18.51;53.66;99614.84;4825810;29;20027;-75
2020/12/12 10:17:45;;;;;;;7.22;3.58;;;;;;;18.49;53.66;99612.25;4794390;29;20044;-75
2020/12/12 10:20:11;;;;;;;4.63;2.92;;;;;;;18.46;53.69;99614.94;4824537;29;20090;-75
2020/12/12 10:22:37;;;;;;;6.53;3.20;;;;;;;18.47;53.55;99621.91;4825062;29;20034;-75
2020/12/12 10:25:03;;;;;;;3.15;2.30;;;;;;;18.43;53.59;99620.28;4813895;29;20493;-74
2020/12/12 10:27:29;;;;;;;4.57;2.85;;;;;;;18.44;53.76;99629.81;4809188;29;20033;-74
2020/12/12 10:29:54;;;;;;;4.95;2.47;;;;;;;18.42;53.82;99620.31;4825411;29;20535;-75
2020/12/12 10:32:20;;;;;;;5.28;3.22;;;;;;;18.43;53.64;99628.13;4794369;29;20030;-75
2020/12/12 10:34:45;;;;;;;3.83;2.50;;;;;;;18.41;53.45;99627.28;4779266;29;20042;-75
2020/12/12 10:37:10;;;;;;;6.20;2.97;;;;;;;18.43;53.77;99629.88;4816808;29;20066;-75
2020/12/12 10:39:42;;;;;;;3.78;2.88;;;;;;;18.39;53.35;99628.22;4809151;29;20398;-75
2020/12/12 10:42:07;;;;;;;4.20;2.90;;;;;;;18.39;53.59;99620.38;4810005;29;20137;-75
2020/12/12 10:44:32;;;;;;;3.50;2.90;;;;;;;18.39;53.65;99625.59;4816335;29;20490;-75
2020/12/12 10:46:58;;;;;;;3.22;2.22;;;;;;;18.40;53.32;99635.19;4782862;29;20062;-74
2020/12/12 10:49:23;;;;;;;5.00;2.90;;;;;;;18.41;53.36;99634.28;4820683;29;20037;-75
2020/12/12 10:51:53;;;;;;;4.32;2.85;;;;;;;18.38;53.44;99635.22;4820074;29;20121;-75
2020/12/12 10:54:19;;;;;;;2.97;2.13;;;;;;;18.36;53.26;99637.00;4792244;29;20031;-75
2020/12/12 10:56:46;;;;;;;3.65;2.60;;;;;;;18.36;53.45;99644.84;4809177;29;20521;-74
2020/12/12 10:59:12;;;;;;;3.25;2.42;;;;;;;18.36;53.35;99639.63;4824484;29;20042;-74
2020/12/12 11:01:39;;;;;;;3.63;2.60;;;;;;;18.37;53.72;99638.72;4809414;29;20030;-74
2020/12/12 11:04:05;;;;;;;3.17;2.25;;;;;;;18.34;53.18;99635.31;4809040;29;20435;-74
2020/12/12 11:06:32;;;;;;;3.40;2.30;;;;;;;18.35;53.21;99639.66;4824034;29;20043;-74
2020/12/12 11:08:58;;;;;;;3.67;2.22;;;;;;;18.36;53.15;99642.25;4821266;29;20470;-74
2020/12/12 11:11:23;;;;;;;3.58;2.60;;;;;;;18.33;53.71;99638.81;4824182;29;20038;-74
2020/12/12 11:13:49;;;;;;;3.20;2.13;;;;;;;18.35;53.21;99640.50;4808639;29;20368;-74
2020/12/12 11:16:22;;;;;;;4.43;2.75;;;;;;;18.34;53.45;99651.00;4825139;29;20456;-73
2020/12/12 11:18:50;;;;;;;3.17;2.33;;;;;;;18.33;53.22;99647.53;4824958;29;20073;-73
2020/12/12 11:21:19;;;;;;;3.13;2.33;;;;;;;18.34;53.03;99653.63;4824979;29;20072;-74
2020/12/12 11:23:45;;;;;;;3.60;2.33;;;;;;;18.32;53.46;99645.81;4824945;29;20509;-74
2020/12/12 11:26:11;;;;;;;4.03;2.75;;;;;;;18.31;53.56;99653.69;4808410;29;20046;-74
2020/12/12 11:28:37;;;;;;;3.40;2.53;;;;;;;18.30;53.64;99655.47;4808716;29;20045;-74
2020/12/12 11:31:03;;;;;;;4.95;2.42;;;;;;;18.28;53.59;99656.41;4793404;29;20030;-74
2020/12/12 11:33:28;;;;;;;8.50;2.72;;;;;;;18.29;53.47;99655.50;4775200;29;20028;-74
2020/12/12 11:38:35;;;;;;;3.28;2.30;;;;;;;18.30;53.50;99673.81;4809171;29;20079;-74
2020/12/12 11:48:38;;;;;;;3.38;2.20;;;;;;;18.24;53.51;99662.59;4822901;29;20102;-74